createdAt,value
2022-08-04T00:02:53.282Z,96.12
2022-08-04T00:08:06.264Z,96.09
2022-08-04T00:13:10.519Z,95.75
2022-08-04T00:18:17.389Z,96.30
2022-08-04T00:23:23.646Z,96.59
2022-08-04T00:28:26.748Z,96.92
2022-08-04T00:33:29.801Z,96.95
2022-08-04T00:38:35.491Z,96.74
2022-08-04T00:43:48.690Z,96.99
2022-08-04T00:49:39.495Z,97.29
2022-08-04T00:55:00.302Z,96.71
2022-08-04T01:00:09.480Z,96.55
2022-08-04T01:05:21.822Z,95.06
2022-08-04T01:10:38.920Z,95.54
2022-08-04T01:16:00.135Z,94.53
2022-08-04T01:21:32.342Z,93.14
2022-08-04T01:26:57.915Z,92.31
2022-08-04T01:32:05.443Z,90.69
2022-08-04T01:37:13.304Z,91.17
2022-08-04T01:42:31.712Z,91.21
2022-08-04T01:47:38.318Z,91.25
2022-08-04T01:52:44.640Z,91.59
2022-08-04T01:57:51.900Z,92.43
2022-08-04T02:02:57.887Z,91.30
2022-08-04T02:08:13.068Z,91.82
2022-08-04T02:13:24.752Z,92.26
2022-08-04T02:18:33.265Z,92.71
2022-08-04T02:23:38.955Z,92.67
2022-08-04T02:28:49.226Z,93.15
2022-08-04T02:34:06.499Z,93.27
2022-08-04T02:39:11.886Z,94.60
2022-08-04T02:44:20.999Z,94.91
2022-08-04T02:49:25.336Z,95.64
2022-08-04T02:54:41.079Z,95.79
2022-08-04T03:00:02.641Z,95.67
2022-08-04T03:05:14.540Z,95.47
2022-08-04T03:10:38.662Z,96.07
2022-08-04T03:16:19.895Z,95.93
2022-08-04T03:22:01.644Z,96.76
2022-08-04T03:27:35.571Z,96.32
2022-08-04T03:33:14.847Z,95.84
2022-08-04T03:38:55.614Z,95.91
2022-08-04T03:44:37.463Z,96.15
2022-08-04T03:50:19.209Z,96.61
2022-08-04T03:55:47.081Z,94.29
2022-08-04T04:00:58.900Z,94.30
2022-08-04T04:06:33.725Z,94.35
2022-08-04T04:12:03.008Z,94.38
2022-08-04T04:17:16.688Z,93.82
2022-08-04T04:22:33.193Z,94.47
2022-08-04T04:28:45.460Z,93.12
2022-08-04T04:33:38.348Z,92.48
2022-08-04T04:39:02.545Z,92.01
2022-08-04T04:44:30.238Z,91.45
2022-08-04T04:49:38.964Z,91.30
2022-08-04T04:54:46.971Z,90.67
2022-08-04T04:59:58.707Z,90.13
2022-08-04T05:05:22.326Z,89.99
2022-08-04T05:10:39.066Z,89.08
2022-08-04T05:15:46.584Z,88.38
2022-08-04T05:20:55.017Z,87.98
2022-08-04T05:26:02.134Z,86.71
2022-08-04T05:31:11.983Z,86.45
2022-08-04T05:36:29.364Z,85.12
2022-08-04T05:41:45.586Z,82.10
2022-08-04T05:46:54.799Z,80.75
2022-08-04T05:52:01.326Z,79.79
2022-08-04T05:57:06.181Z,79.19
2022-08-04T06:02:11.188Z,77.89
2022-08-04T06:07:14.724Z,74.11
2022-08-04T06:12:22.227Z,73.17
2022-08-04T06:19:56.369Z,74.53
2022-08-04T06:22:57.764Z,75.22
2022-08-04T06:28:02.905Z,74.68
2022-08-04T06:33:28.760Z,73.27
2022-08-04T06:38:35.963Z,70.99
2022-08-04T06:43:43.005Z,65.99
2022-08-04T06:48:49.012Z,56.38
2022-08-04T06:53:52.037Z,51.92
2022-08-04T06:58:58.944Z,46.59
2022-08-04T07:04:04.251Z,44.28
2022-08-04T07:09:10.284Z,44.72
2022-08-04T07:14:13.984Z,38.75
2022-08-04T07:19:19.187Z,35.48
2022-08-04T07:24:22.064Z,35.73
2022-08-04T07:29:25.484Z,36.37
2022-08-04T07:34:31.746Z,39.72
2022-08-04T07:39:48.022Z,37.42
2022-08-04T07:44:52.871Z,34.63
2022-08-04T07:56:42.173Z,33.27
2022-08-04T08:01:45.449Z,31.11
2022-08-04T08:06:48.393Z,31.85
2022-08-04T08:12:36.927Z,31.02
2022-08-04T08:17:17.512Z,31.95
2022-08-04T08:22:20.340Z,33.15
2022-08-04T08:27:24.791Z,34.53
2022-08-04T08:32:28.935Z,38.05
2022-08-04T08:37:40.317Z,41.82
2022-08-04T08:43:59.957Z,42.49
2022-08-04T08:48:50.669Z,43.78
2022-08-04T08:54:16.707Z,42.98
2022-08-04T08:59:54.758Z,43.07
2022-08-04T09:05:20.904Z,42.95
2022-08-04T09:10:33.325Z,43.45
2022-08-04T09:15:42.773Z,42.21
2022-08-04T09:20:49.720Z,41.59
2022-08-04T09:25:59.627Z,41.95
2022-08-04T09:31:10.731Z,43.15
2022-08-04T09:36:28.856Z,42.73
2022-08-04T09:41:49.713Z,42.38
2022-08-04T09:47:07.076Z,41.45
2022-08-04T09:52:24.925Z,41.85
2022-08-04T09:57:40.280Z,41.42
2022-08-04T10:02:48.377Z,41.49
2022-08-04T10:08:18.951Z,42.58
2022-08-04T10:13:45.323Z,41.90
2022-08-04T10:18:59.413Z,41.22
2022-08-04T10:24:29.846Z,40.81
2022-08-04T10:29:42.224Z,39.90
2022-08-04T10:34:55.107Z,38.80
2022-08-04T10:40:23.773Z,38.02
2022-08-04T10:45:34.903Z,38.21
2022-08-04T10:50:41.397Z,36.23
2022-08-04T10:56:06.756Z,37.39
2022-08-04T11:02:01.132Z,36.96
2022-08-04T11:06:42.350Z,36.77
2022-08-04T11:12:00.129Z,34.05
2022-08-04T11:17:09.128Z,31.46
2022-08-04T11:22:28.009Z,29.93
2022-08-04T11:27:49.975Z,29.63
2022-08-04T11:33:03.329Z,27.34
2022-08-04T11:38:12.382Z,27.00
2022-08-04T11:43:56.438Z,27.44
2022-08-04T11:48:57.392Z,26.75
2022-08-04T11:54:01.621Z,26.59
2022-08-04T11:59:08.117Z,27.77
2022-08-04T12:04:18.733Z,27.38
2022-08-04T12:09:33.143Z,27.07
2022-08-04T12:14:48.051Z,26.77
2022-08-04T12:20:04.858Z,27.62
2022-08-04T12:25:22.614Z,27.86
2022-08-04T12:30:59.637Z,27.68
2022-08-04T12:36:11.008Z,27.45
2022-08-04T12:41:21.883Z,27.96
2022-08-04T12:46:29.081Z,28.21
2022-08-04T12:52:07.857Z,28.06
2022-08-04T12:57:03.078Z,29.00
2022-08-04T13:02:13.522Z,28.76
2022-08-04T13:07:20.959Z,27.84
2022-08-04T13:12:32.509Z,27.78
2022-08-04T13:17:50.574Z,28.54
2022-08-04T13:22:59.208Z,28.58
2022-08-04T13:28:04.030Z,28.76
2022-08-04T13:33:08.837Z,28.91
2022-08-04T13:38:13.288Z,29.54
2022-08-04T13:44:15.617Z,29.57
2022-08-04T13:49:08.988Z,29.96
2022-08-04T13:54:13.792Z,30.04
2022-08-04T13:59:18.956Z,29.47
2022-08-04T14:04:26.021Z,29.59
2022-08-04T14:09:35.356Z,29.06
2022-08-04T14:14:46.509Z,29.29
2022-08-04T14:19:54.204Z,29.11
2022-08-04T14:24:57.818Z,30.43
2022-08-04T14:30:00.769Z,30.11
2022-08-04T14:35:13.324Z,30.88
2022-08-04T14:40:30.327Z,32.35
2022-08-04T14:45:35.592Z,38.34
2022-08-04T14:50:42.099Z,45.79
2022-08-04T14:55:47.692Z,47.69
2022-08-04T15:00:51.976Z,51.32
2022-08-04T15:06:05.446Z,53.64
2022-08-04T15:11:11.100Z,55.44
2022-08-04T15:16:28.445Z,54.67
2022-08-04T15:21:32.854Z,54.86
2022-08-04T15:26:40.730Z,55.90
2022-08-04T15:32:05.337Z,59.08
2022-08-04T15:37:09.902Z,60.62
2022-08-04T15:42:21.151Z,60.78
2022-08-04T15:47:24.598Z,60.30
2022-08-04T15:52:29.221Z,70.35
2022-08-04T15:58:03.427Z,73.51
2022-08-04T16:03:55.382Z,78.25
2022-08-04T16:09:06.213Z,80.74
2022-08-04T16:14:10.127Z,82.28
2022-08-04T16:19:22.013Z,83.84
2022-08-04T16:24:32.491Z,75.86
2022-08-04T16:29:37.841Z,74.44
2022-08-04T16:34:49.510Z,71.93
2022-08-04T16:40:39.697Z,74.78
2022-08-04T16:45:48.614Z,75.32
2022-08-04T16:50:57.192Z,74.70
2022-08-04T16:56:01.427Z,74.22
2022-08-04T17:01:09.524Z,74.24
2022-08-04T17:06:14.806Z,74.76
2022-08-04T17:11:19.112Z,75.45
2022-08-04T17:16:25.466Z,77.08
2022-08-04T17:21:30.039Z,75.36
2022-08-04T17:26:39.971Z,75.35
2022-08-04T17:31:45.850Z,75.44
2022-08-04T17:36:49.253Z,74.76
2022-08-04T17:41:58.553Z,74.31
2022-08-04T17:47:12.815Z,73.83
2022-08-04T17:52:37.418Z,73.18
2022-08-04T18:03:08.758Z,75.89
2022-08-04T18:08:40.589Z,76.07
2022-08-04T18:13:43.447Z,76.23
2022-08-04T18:19:06.499Z,76.37
2022-08-04T18:24:11.455Z,77.97
2022-08-04T18:29:31.468Z,77.46
2022-08-04T18:34:35.039Z,78.20
2022-08-04T18:40:09.754Z,77.21
2022-08-04T18:45:09.808Z,79.18
2022-08-04T18:51:00.119Z,79.33
2022-08-04T18:55:55.918Z,79.20
2022-08-04T19:01:00.455Z,79.67
2022-08-04T19:06:07.612Z,79.47
2022-08-04T19:11:37.335Z,78.86
2022-08-04T19:16:40.883Z,80.83
2022-08-04T19:22:01.084Z,82.00
2022-08-04T19:27:12.117Z,82.09
2022-08-04T19:32:16.550Z,82.07
2022-08-04T19:37:56.855Z,82.75
2022-08-04T19:42:43.378Z,84.31
2022-08-04T19:48:16.418Z,82.89
2022-08-04T19:53:18.956Z,82.45
2022-08-04T19:58:26.265Z,83.77
2022-08-04T20:04:09.174Z,86.10
2022-08-04T20:08:53.705Z,86.30
2022-08-04T20:13:58.375Z,87.18
2022-08-04T20:19:04.212Z,87.82
2022-08-04T20:24:39.429Z,87.52
2022-08-04T20:29:40.964Z,87.75
2022-08-04T20:34:47.837Z,89.02
2022-08-04T20:39:55.312Z,91.28
2022-08-04T20:44:58.556Z,92.43
2022-08-04T20:50:03.252Z,95.06
2022-08-04T20:55:08.322Z,96.57
2022-08-04T21:00:13.446Z,98.07
2022-08-04T21:05:17.991Z,98.87
2022-08-04T21:10:21.838Z,97.52
2022-08-04T21:15:26.411Z,98.46
2022-08-04T21:20:50.016Z,98.26
2022-08-04T21:25:56.927Z,99.30
2022-08-04T21:31:02.505Z,98.28
2022-08-04T21:36:27.503Z,98.96
2022-08-04T21:41:30.452Z,99.45
2022-08-04T21:46:33.909Z,99.70
2022-08-04T21:51:59.197Z,100.00
2022-08-04T21:57:04.214Z,100.00
2022-08-04T22:02:09.197Z,100.00
2022-08-04T22:07:16.478Z,100.00
2022-08-04T22:12:21.197Z,100.00
2022-08-04T22:17:25.068Z,100.00
2022-08-04T22:22:30.011Z,100.00
2022-08-04T22:27:55.407Z,100.00
2022-08-04T22:32:58.345Z,100.00
2022-08-04T22:38:06.920Z,100.00
2022-08-04T22:43:33.384Z,100.00
2022-08-04T22:48:38.276Z,100.00
2022-08-04T22:53:48.979Z,100.00
2022-08-04T22:58:52.102Z,100.00
2022-08-04T23:03:56.203Z,100.00
2022-08-04T23:09:00.441Z,100.00
2022-08-04T23:14:05.501Z,100.00
2022-08-04T23:19:09.778Z,100.00
2022-08-04T23:24:14.377Z,100.00
2022-08-04T23:29:17.187Z,100.00
2022-08-04T23:34:20.004Z,100.00
2022-08-04T23:39:24.268Z,100.00
2022-08-04T23:44:28.161Z,100.00
2022-08-04T23:49:42.343Z,100.00
2022-08-04T23:54:51.257Z,100.00
2022-08-04T23:59:56.000Z,100.00
